createdAt,value
2019-04-30T00:02:01.423Z,6.92
2019-04-30T00:04:40.201Z,6.70
2019-04-30T00:07:10.254Z,6.71
2019-04-30T00:09:38.056Z,6.61
2019-04-30T00:12:07.097Z,6.61
2019-04-30T00:14:40.097Z,6.56
2019-04-30T00:17:10.751Z,6.87
2019-04-30T00:19:37.757Z,6.85
2019-04-30T00:22:06.834Z,7.02
2019-04-30T00:24:39.877Z,7.09
2019-04-30T00:27:06.823Z,6.98
2019-04-30T00:29:36.082Z,7.08
2019-04-30T00:32:07.815Z,7.12
2019-04-30T00:34:39.273Z,6.84
2019-04-30T00:37:07.362Z,6.88
2019-04-30T00:39:36.656Z,6.58
2019-04-30T00:42:05.394Z,6.41
2019-04-30T00:44:35.673Z,6.42
2019-04-30T00:47:08.298Z,6.33
2019-04-30T00:49:37.016Z,6.16
2019-04-30T00:52:06.019Z,6.16
2019-04-30T00:54:35.192Z,6.22
2019-04-30T00:57:07.512Z,6.77
2019-04-30T00:59:35.207Z,6.77
2019-04-30T01:02:29.157Z,6.75
2019-04-30T01:05:00.201Z,6.86
2019-04-30T01:07:26.557Z,7.06
2019-04-30T01:09:55.611Z,7.19
2019-04-30T01:12:28.951Z,7.19
2019-04-30T01:14:55.227Z,7.16
2019-04-30T01:17:24.527Z,6.90
2019-04-30T01:19:54.606Z,6.58
2019-04-30T01:22:28.065Z,6.49
2019-04-30T01:24:54.276Z,6.49
2019-04-30T01:27:23.263Z,6.26
2019-04-30T01:29:52.568Z,6.08
2019-04-30T01:32:21.334Z,6.08
2019-04-30T01:34:53.766Z,6.11
2019-04-30T01:37:28.648Z,6.27
2019-04-30T01:39:51.663Z,6.23
2019-04-30T01:42:20.610Z,6.25
2019-04-30T01:44:53.569Z,6.25
2019-04-30T01:47:21.442Z,6.50
2019-04-30T01:49:50.274Z,6.61
2019-04-30T01:52:19.449Z,6.58
2019-04-30T01:54:49.038Z,6.61
2019-04-30T01:57:26.704Z,6.68
2019-04-30T02:00:32.924Z,6.68
2019-04-30T02:03:01.851Z,6.66
2019-04-30T02:05:30.693Z,6.58
2019-04-30T02:07:59.697Z,6.42
2019-04-30T02:10:28.671Z,6.42
2019-04-30T02:12:59.111Z,6.45
2019-04-30T02:15:29.184Z,6.34
2019-04-30T02:17:58.898Z,6.31
2019-04-30T02:20:28.744Z,6.24
2019-04-30T02:22:58.588Z,6.24
2019-04-30T02:25:29.385Z,6.19
2019-04-30T02:27:59.009Z,6.27
2019-04-30T02:30:30.813Z,6.32
2019-04-30T02:33:00.481Z,6.13
2019-04-30T02:35:50.609Z,6.13
2019-04-30T02:38:23.354Z,6.06
2019-04-30T02:40:52.056Z,6.03
2019-04-30T02:43:22.989Z,6.03
2019-04-30T02:45:53.702Z,5.97
2019-04-30T02:48:23.947Z,5.94
2019-04-30T02:50:54.776Z,5.92
2019-04-30T02:54:00.785Z,6.20
2019-04-30T02:56:30.047Z,6.18
2019-04-30T02:59:03.207Z,5.97
2019-04-30T03:01:30.518Z,5.87
2019-04-30T03:04:00.204Z,5.87
2019-04-30T03:06:30.377Z,5.97
2019-04-30T03:09:01.104Z,5.81
2019-04-30T03:11:30.458Z,5.81
2019-04-30T03:13:59.522Z,5.76
2019-04-30T03:16:35.684Z,5.80
2019-04-30T03:19:19.635Z,5.80
2019-04-30T03:22:01.198Z,5.80
2019-04-30T03:24:30.120Z,5.67
2019-04-30T03:26:59.494Z,5.67
2019-04-30T03:29:30.306Z,5.71
2019-04-30T03:32:02.505Z,5.71
2019-04-30T03:34:32.495Z,5.62
2019-04-30T03:37:02.030Z,5.56
2019-04-30T03:39:33.760Z,5.56
2019-04-30T03:42:01.289Z,5.53
2019-04-30T03:44:32.324Z,5.55
2019-04-30T03:47:01.016Z,5.59
2019-04-30T03:49:30.622Z,5.69
2019-04-30T03:52:00.089Z,5.69
2019-04-30T03:54:29.434Z,5.69
2019-04-30T03:57:00.829Z,5.70
2019-04-30T03:59:30.249Z,5.78
2019-04-30T04:02:21.400Z,5.78
2019-04-30T04:05:10.256Z,5.89
2019-04-30T04:08:02.702Z,5.88
2019-04-30T04:11:02.428Z,5.88
2019-04-30T04:13:33.087Z,5.87
2019-04-30T04:16:01.681Z,6.07
2019-04-30T04:18:30.333Z,6.13
2019-04-30T04:21:08.713Z,6.18
2019-04-30T04:23:32.852Z,6.46
2019-04-30T04:26:00.199Z,6.46
2019-04-30T04:28:29.987Z,6.38
2019-04-30T04:31:00.109Z,6.74
2019-04-30T04:33:29.740Z,6.96
2019-04-30T04:35:59.786Z,7.09
2019-04-30T04:38:30.379Z,6.79
2019-04-30T04:41:02.651Z,6.92
2019-04-30T04:43:30.127Z,6.86
2019-04-30T04:45:59.451Z,6.98
2019-04-30T04:48:29.772Z,7.01
2019-04-30T04:50:59.996Z,7.18
2019-04-30T04:53:30.409Z,7.17
2019-04-30T04:56:00.140Z,7.34
2019-04-30T04:58:30.246Z,7.24
2019-04-30T05:00:59.799Z,7.19
2019-04-30T05:03:32.809Z,7.12
2019-04-30T05:06:02.682Z,7.06
2019-04-30T05:08:31.794Z,7.04
2019-04-30T05:11:00.593Z,7.10
2019-04-30T05:13:29.585Z,7.12
2019-04-30T05:15:59.374Z,7.12
2019-04-30T05:18:29.123Z,7.23
2019-04-30T05:20:59.054Z,7.34
2019-04-30T05:23:29.851Z,7.44
2019-04-30T05:25:58.979Z,7.65
2019-04-30T05:28:29.947Z,7.78
2019-04-30T05:30:59.381Z,7.78
2019-04-30T05:33:28.754Z,7.81
2019-04-30T05:35:59.242Z,8.00
2019-04-30T05:38:28.735Z,8.20
2019-04-30T05:40:59.575Z,8.20
2019-04-30T05:43:29.047Z,8.28
2019-04-30T05:45:58.707Z,8.28
2019-04-30T05:48:28.653Z,8.30
2019-04-30T05:50:59.108Z,8.40
2019-04-30T05:53:28.711Z,8.49
2019-04-30T05:55:59.302Z,8.70
2019-04-30T05:58:29.979Z,8.73
2019-04-30T06:00:59.763Z,8.83
2019-04-30T06:03:33.078Z,8.98
2019-04-30T06:05:59.359Z,9.06
2019-04-30T06:08:33.048Z,9.10
2019-04-30T06:11:07.026Z,9.22
2019-04-30T06:13:49.096Z,9.29
2019-04-30T06:16:20.270Z,9.34
2019-04-30T06:18:49.393Z,9.46
2019-04-30T06:21:21.334Z,9.57
2019-04-30T06:23:49.278Z,9.71
2019-04-30T06:26:20.712Z,9.85
2019-04-30T06:28:49.665Z,9.94
2019-04-30T06:31:31.659Z,9.99
2019-04-30T06:33:49.806Z,10.03
2019-04-30T06:36:19.412Z,10.16
2019-04-30T06:38:48.978Z,10.24
2019-04-30T06:41:19.704Z,10.37
2019-04-30T06:43:48.899Z,10.38
2019-04-30T06:46:18.703Z,10.38
2019-04-30T06:48:50.837Z,10.48
2019-04-30T06:51:18.944Z,10.58
2019-04-30T06:53:49.560Z,10.65
2019-04-30T06:56:18.960Z,10.74
2019-04-30T06:58:49.361Z,10.88
2019-04-30T07:01:19.056Z,11.07
2019-04-30T07:03:48.736Z,11.46
2019-04-30T07:06:29.224Z,11.68
2019-04-30T07:08:59.538Z,11.90
2019-04-30T07:11:40.276Z,12.04
2019-04-30T07:14:09.691Z,12.18
2019-04-30T07:16:39.747Z,12.22
2019-04-30T07:19:09.297Z,12.02
2019-04-30T07:21:42.722Z,11.89
2019-04-30T07:24:09.679Z,11.87
2019-04-30T07:26:38.979Z,11.87
2019-04-30T07:29:09.654Z,11.90
2019-04-30T07:31:39.353Z,11.94
2019-04-30T07:34:09.317Z,12.19
2019-04-30T07:36:48.337Z,12.38
2019-04-30T07:39:10.063Z,12.33
2019-04-30T07:41:40.198Z,12.43
2019-04-30T07:44:10.986Z,12.50
2019-04-30T07:46:43.859Z,12.64
2019-04-30T07:49:10.225Z,12.75
2019-04-30T07:51:41.515Z,12.76
2019-04-30T07:54:09.334Z,12.78
2019-04-30T07:56:41.560Z,12.77
2019-04-30T07:59:11.077Z,12.95
2019-04-30T08:02:00.725Z,12.98
2019-04-30T08:04:29.461Z,13.13
2019-04-30T08:06:59.832Z,13.11
2019-04-30T08:09:38.767Z,13.28
2019-04-30T08:11:59.486Z,13.38
2019-04-30T08:14:28.839Z,13.51
2019-04-30T08:16:58.937Z,13.47
2019-04-30T08:19:28.720Z,13.49
2019-04-30T08:21:58.600Z,13.63
2019-04-30T08:24:29.086Z,13.85
2019-04-30T08:26:59.130Z,13.93
2019-04-30T08:29:29.487Z,13.92
2019-04-30T08:31:59.306Z,13.97
2019-04-30T08:34:29.212Z,14.15
2019-04-30T08:36:59.481Z,13.78
2019-04-30T08:39:31.612Z,13.97
2019-04-30T08:41:59.995Z,14.16
2019-04-30T08:44:29.449Z,14.39
2019-04-30T08:46:59.051Z,14.44
2019-04-30T08:49:30.199Z,14.62
2019-04-30T08:51:58.773Z,14.80
2019-04-30T08:54:29.478Z,14.63
2019-04-30T08:56:59.524Z,14.64
2019-04-30T08:59:29.562Z,14.65
2019-04-30T09:02:00.031Z,14.83
2019-04-30T09:04:30.192Z,14.91
2019-04-30T09:06:59.933Z,14.84
2019-04-30T09:09:29.630Z,14.65
2019-04-30T09:11:59.214Z,14.96
2019-04-30T09:14:29.800Z,14.96
2019-04-30T09:16:59.557Z,14.94
2019-04-30T09:19:29.822Z,15.12
2019-04-30T09:21:59.119Z,15.22
2019-04-30T09:24:30.740Z,15.05
2019-04-30T09:26:59.139Z,15.31
2019-04-30T09:29:29.296Z,15.31
2019-04-30T09:31:59.432Z,15.25
2019-04-30T09:34:29.100Z,15.64
2019-04-30T09:36:58.942Z,15.78
2019-04-30T09:39:29.536Z,15.86
2019-04-30T09:41:59.672Z,15.73
2019-04-30T09:44:30.741Z,15.95
2019-04-30T09:46:59.299Z,15.94
2019-04-30T09:49:29.401Z,15.80
2019-04-30T09:51:59.511Z,16.25
2019-04-30T09:54:29.480Z,16.46
2019-04-30T09:56:59.021Z,16.55
2019-04-30T09:59:29.167Z,16.79
2019-04-30T10:01:58.343Z,17.17
2019-04-30T10:04:29.880Z,17.76
2019-04-30T10:06:59.559Z,18.00
2019-04-30T10:09:29.349Z,17.26
2019-04-30T10:12:09.881Z,17.93
2019-04-30T10:14:40.808Z,18.69
2019-04-30T10:17:28.391Z,19.02
2019-04-30T10:19:56.980Z,19.46
2019-04-30T10:22:25.596Z,19.04
2019-04-30T10:24:54.210Z,19.38
2019-04-30T10:27:23.208Z,19.23
2019-04-30T10:29:53.215Z,18.65
2019-04-30T10:32:21.821Z,18.61
2019-04-30T10:34:50.461Z,18.62
2019-04-30T10:37:19.390Z,19.61
2019-04-30T10:39:49.001Z,19.89
2019-04-30T10:42:18.295Z,19.72
2019-04-30T10:44:46.871Z,19.96
2019-04-30T10:47:15.865Z,19.58
2019-04-30T10:49:44.590Z,19.90
2019-04-30T10:52:13.445Z,20.17
2019-04-30T10:54:42.059Z,20.06
2019-04-30T10:57:11.080Z,20.28
2019-04-30T10:59:39.811Z,20.14
2019-04-30T11:02:09.083Z,19.69
2019-04-30T11:04:38.316Z,19.58
2019-04-30T11:07:08.646Z,19.78
2019-04-30T11:09:39.385Z,19.69
2019-04-30T11:12:09.455Z,19.97
2019-04-30T11:14:38.480Z,19.78
2019-04-30T11:17:09.641Z,19.70
2019-04-30T11:19:39.181Z,19.67
2019-04-30T11:22:08.426Z,19.57
2019-04-30T11:24:53.233Z,19.91
2019-04-30T11:27:10.673Z,19.89
2019-04-30T11:29:39.456Z,19.64
2019-04-30T11:32:34.200Z,19.80
2019-04-30T11:35:03.144Z,19.66
2019-04-30T11:37:31.792Z,19.77
2019-04-30T11:40:00.675Z,19.68
2019-04-30T11:42:32.322Z,19.77
2019-04-30T11:45:00.418Z,20.05
2019-04-30T11:47:34.248Z,19.99
2019-04-30T11:50:03.747Z,19.96
2019-04-30T11:52:32.731Z,19.23
2019-04-30T11:55:01.624Z,19.35
2019-04-30T11:57:30.651Z,18.72
2019-04-30T11:59:59.589Z,19.28
2019-04-30T12:02:36.650Z,19.33
2019-04-30T12:05:06.567Z,19.20
2019-04-30T12:07:42.101Z,18.61
2019-04-30T12:10:20.351Z,19.40
2019-04-30T12:12:49.332Z,19.68
2019-04-30T12:15:19.248Z,19.73
2019-04-30T12:17:48.758Z,19.63
2019-04-30T12:20:19.677Z,20.03
2019-04-30T12:22:49.349Z,20.08
2019-04-30T12:25:18.710Z,19.48
2019-04-30T12:27:48.860Z,19.59
2019-04-30T12:30:20.551Z,19.52
2019-04-30T12:32:49.329Z,19.48
2019-04-30T12:35:18.706Z,19.08
2019-04-30T12:37:49.336Z,19.64
2019-04-30T12:40:28.573Z,20.10
2019-04-30T12:42:48.788Z,20.06
2019-04-30T12:45:19.345Z,19.72
2019-04-30T12:47:52.424Z,20.07
2019-04-30T12:50:40.599Z,19.21
2019-04-30T12:53:14.173Z,19.35
2019-04-30T12:56:02.547Z,20.18
2019-04-30T12:58:31.435Z,20.25
2019-04-30T13:01:00.642Z,20.07
2019-04-30T13:03:30.840Z,20.23
2019-04-30T13:06:01.114Z,20.42
2019-04-30T13:08:31.165Z,20.17
2019-04-30T13:11:00.828Z,19.86
2019-04-30T13:13:32.175Z,20.43
2019-04-30T13:16:00.443Z,19.93
2019-04-30T13:18:29.567Z,19.90
2019-04-30T13:20:58.977Z,19.99
2019-04-30T13:23:29.774Z,19.94
2019-04-30T13:26:01.007Z,20.13
2019-04-30T13:28:31.242Z,19.93
2019-04-30T13:31:00.132Z,20.06
2019-04-30T13:33:41.237Z,20.66
2019-04-30T13:36:10.184Z,20.39
2019-04-30T13:38:52.350Z,20.18
2019-04-30T13:41:33.040Z,19.85
2019-04-30T13:44:06.310Z,20.32
2019-04-30T13:46:35.002Z,19.54
2019-04-30T13:49:04.056Z,19.29
2019-04-30T13:51:32.919Z,19.57
2019-04-30T13:54:01.637Z,19.03
2019-04-30T13:56:30.821Z,18.96
2019-04-30T13:58:59.816Z,18.80
2019-04-30T14:01:29.382Z,18.17
2019-04-30T14:04:19.787Z,18.24
2019-04-30T14:07:06.316Z,18.56
2019-04-30T14:09:35.225Z,18.88
2019-04-30T14:12:04.151Z,18.65
2019-04-30T14:14:33.408Z,18.64
2019-04-30T14:17:02.032Z,18.57
2019-04-30T14:19:30.721Z,18.02
2019-04-30T14:21:59.366Z,18.40
2019-04-30T14:24:28.259Z,18.30
2019-04-30T14:26:59.062Z,18.08
2019-04-30T14:29:28.493Z,18.04
2019-04-30T14:31:58.841Z,17.75
2019-04-30T14:34:28.632Z,17.55
2019-04-30T14:36:59.396Z,17.36
2019-04-30T14:39:29.296Z,17.35
2019-04-30T14:42:00.137Z,17.36
2019-04-30T14:44:31.784Z,17.29
2019-04-30T14:47:13.925Z,17.43
2019-04-30T14:50:05.426Z,17.63
2019-04-30T14:52:40.350Z,17.67
2019-04-30T14:55:26.845Z,18.04
2019-04-30T14:58:20.257Z,18.03
2019-04-30T15:00:59.333Z,18.03
2019-04-30T15:03:29.509Z,18.16
2019-04-30T15:05:59.012Z,17.91
2019-04-30T15:08:29.308Z,18.00
2019-04-30T15:10:58.129Z,17.98
2019-04-30T15:13:29.392Z,17.99
2019-04-30T15:15:57.801Z,17.99
2019-04-30T15:18:28.886Z,17.77
2019-04-30T15:20:59.353Z,17.66
2019-04-30T15:23:39.427Z,17.75
2019-04-30T15:26:09.744Z,17.96
2019-04-30T15:28:39.316Z,17.84
2019-04-30T15:31:09.789Z,17.60
2019-04-30T15:34:02.922Z,17.80
2019-04-30T15:36:30.902Z,17.74
2019-04-30T15:39:39.139Z,17.72
2019-04-30T15:42:08.063Z,17.85
2019-04-30T15:44:40.222Z,17.61
2019-04-30T15:47:09.129Z,17.55
2019-04-30T15:49:38.167Z,17.33
2019-04-30T15:52:10.763Z,17.29
2019-04-30T15:54:39.243Z,17.25
2019-04-30T15:57:08.891Z,17.23
2019-04-30T15:59:42.244Z,17.28
2019-04-30T16:02:29.937Z,17.28
2019-04-30T16:05:23.751Z,17.36
2019-04-30T16:08:02.575Z,17.28
2019-04-30T16:10:53.714Z,17.29
2019-04-30T16:13:24.626Z,17.26
2019-04-30T16:15:53.512Z,17.16
2019-04-30T16:18:22.428Z,17.05
2019-04-30T16:20:51.719Z,17.07
2019-04-30T16:23:20.772Z,17.04
2019-04-30T16:25:49.698Z,17.12
2019-04-30T16:28:19.568Z,16.96
2019-04-30T16:30:48.393Z,16.92
2019-04-30T16:33:19.355Z,17.04
2019-04-30T16:35:50.878Z,17.12
2019-04-30T16:38:20.760Z,17.05
2019-04-30T16:40:49.061Z,16.98
2019-04-30T16:43:18.626Z,16.89
2019-04-30T16:45:49.401Z,16.86
2019-04-30T16:48:19.318Z,16.97
2019-04-30T16:50:51.269Z,16.84
2019-04-30T16:53:19.909Z,16.88
2019-04-30T16:55:50.645Z,16.85
2019-04-30T16:58:19.800Z,16.81
2019-04-30T17:00:49.352Z,16.66
2019-04-30T17:03:25.565Z,16.58
2019-04-30T17:06:01.226Z,16.61
2019-04-30T17:08:39.131Z,16.69
2019-04-30T17:11:33.426Z,16.72
2019-04-30T17:14:05.252Z,16.54
2019-04-30T17:16:33.868Z,16.60
2019-04-30T17:19:03.082Z,16.64
2019-04-30T17:21:32.065Z,16.70
2019-04-30T17:24:00.674Z,16.57
2019-04-30T17:26:29.752Z,16.54
2019-04-30T17:28:59.842Z,16.64
2019-04-30T17:31:28.623Z,16.63
2019-04-30T17:33:57.550Z,16.59
2019-04-30T17:36:26.963Z,16.51
2019-04-30T17:38:55.600Z,16.56
2019-04-30T17:41:26.685Z,16.48
2019-04-30T17:43:55.860Z,16.57
2019-04-30T17:46:24.509Z,16.49
2019-04-30T17:48:53.564Z,16.51
2019-04-30T17:51:22.950Z,16.48
2019-04-30T17:54:13.318Z,16.41
2019-04-30T17:56:42.990Z,16.39
2019-04-30T17:59:12.168Z,16.46
2019-04-30T18:01:44.034Z,16.32
2019-04-30T18:04:12.640Z,16.29
2019-04-30T18:06:41.566Z,16.27
2019-04-30T18:09:11.068Z,16.19
2019-04-30T18:11:40.007Z,16.19
2019-04-30T18:14:08.925Z,16.00
2019-04-30T18:16:38.790Z,15.96
2019-04-30T18:19:28.499Z,15.87
2019-04-30T18:22:11.302Z,15.88
2019-04-30T18:25:00.647Z,15.81
2019-04-30T18:27:43.878Z,15.76
2019-04-30T18:30:06.230Z,15.77
2019-04-30T18:32:34.845Z,15.69
2019-04-30T18:35:03.827Z,15.72
2019-04-30T18:37:33.121Z,15.64
2019-04-30T18:40:02.118Z,15.54
2019-04-30T18:42:31.621Z,15.49
2019-04-30T18:45:00.923Z,15.40
2019-04-30T18:47:29.576Z,15.31
2019-04-30T18:49:59.457Z,15.22
2019-04-30T18:52:28.519Z,15.24
2019-04-30T18:54:59.398Z,15.16
2019-04-30T18:57:28.043Z,15.09
2019-04-30T18:59:57.022Z,15.04
2019-04-30T19:02:26.232Z,14.94
2019-04-30T19:04:55.144Z,14.87
2019-04-30T19:07:32.313Z,14.79
2019-04-30T19:10:23.524Z,14.81
2019-04-30T19:12:59.089Z,14.85
2019-04-30T19:16:17.930Z,14.75
2019-04-30T19:18:45.802Z,14.75
2019-04-30T19:21:14.456Z,14.73
2019-04-30T19:23:43.380Z,14.83
2019-04-30T19:26:12.368Z,14.82
2019-04-30T19:28:41.575Z,14.88
2019-04-30T19:31:11.702Z,14.89
2019-04-30T19:33:40.459Z,14.84
2019-04-30T19:36:09.813Z,14.80
2019-04-30T19:38:38.663Z,14.77
2019-04-30T19:41:10.486Z,14.78
2019-04-30T19:43:39.109Z,14.81
2019-04-30T19:46:09.193Z,14.71
2019-04-30T19:48:37.981Z,14.70
2019-04-30T19:51:08.699Z,14.60
2019-04-30T19:53:39.480Z,14.69
2019-04-30T19:56:08.016Z,14.81
2019-04-30T19:58:48.762Z,14.80
2019-04-30T20:01:09.382Z,14.77
2019-04-30T20:03:37.750Z,14.75
2019-04-30T20:06:08.915Z,14.71
2019-04-30T20:08:38.727Z,14.70
2019-04-30T20:11:07.450Z,14.66
2019-04-30T20:13:37.284Z,14.59
2019-04-30T20:16:06.579Z,14.53
2019-04-30T20:18:35.595Z,14.47
2019-04-30T20:21:09.216Z,14.50
2019-04-30T20:23:38.689Z,14.45
2019-04-30T20:26:07.586Z,14.45
2019-04-30T20:28:40.000Z,14.50
2019-04-30T20:31:09.124Z,14.39
2019-04-30T20:33:38.875Z,14.37
2019-04-30T20:36:09.209Z,14.32
2019-04-30T20:39:00.298Z,14.36
2019-04-30T20:41:30.216Z,14.28
2019-04-30T20:43:58.828Z,14.27
2019-04-30T20:46:34.237Z,14.29
2019-04-30T20:48:59.316Z,14.28
2019-04-30T20:51:29.102Z,14.20
2019-04-30T20:53:59.272Z,14.18
2019-04-30T20:56:29.145Z,14.18
2019-04-30T20:59:02.362Z,14.14
2019-04-30T21:01:29.506Z,14.01
2019-04-30T21:03:58.590Z,14.03
2019-04-30T21:06:27.182Z,13.93
2019-04-30T21:08:56.105Z,14.01
2019-04-30T21:11:25.089Z,13.92
2019-04-30T21:13:54.399Z,13.82
2019-04-30T21:16:23.603Z,13.93
2019-04-30T21:18:52.240Z,13.90
2019-04-30T21:21:21.281Z,13.87
2019-04-30T21:23:50.478Z,13.82
2019-04-30T21:26:19.724Z,13.71
2019-04-30T21:28:49.543Z,13.61
2019-04-30T21:31:36.205Z,13.60
2019-04-30T21:34:29.345Z,13.62
2019-04-30T21:36:59.649Z,13.57
2019-04-30T21:39:28.573Z,13.50
2019-04-30T21:41:59.324Z,13.42
2019-04-30T21:44:27.807Z,13.32
2019-04-30T21:46:56.430Z,13.35
2019-04-30T21:49:25.067Z,13.34
2019-04-30T21:51:54.397Z,13.28
2019-04-30T21:54:23.255Z,13.28
2019-04-30T21:56:51.882Z,13.28
2019-04-30T21:59:24.467Z,13.22
2019-04-30T22:01:51.573Z,13.19
2019-04-30T22:04:20.559Z,13.12
2019-04-30T22:06:50.274Z,12.99
2019-04-30T22:09:19.264Z,13.04
2019-04-30T22:11:49.416Z,13.02
2019-04-30T22:14:18.865Z,13.00
2019-04-30T22:16:49.337Z,12.92
2019-04-30T22:19:17.971Z,12.78
2019-04-30T22:21:47.100Z,12.80
2019-04-30T22:24:15.796Z,12.81
2019-04-30T22:26:44.984Z,12.64
2019-04-30T22:29:13.877Z,12.64
2019-04-30T22:31:42.502Z,12.62
2019-04-30T22:34:11.152Z,12.53
2019-04-30T22:36:45.775Z,12.50
2019-04-30T22:39:32.895Z,12.54
2019-04-30T22:42:19.110Z,12.52
2019-04-30T22:44:48.082Z,12.45
2019-04-30T22:47:16.945Z,12.45
2019-04-30T22:49:45.870Z,12.43
2019-04-30T22:52:14.756Z,12.25
2019-04-30T22:54:43.953Z,12.24
2019-04-30T22:57:13.152Z,12.23
2019-04-30T22:59:49.661Z,12.19
2019-04-30T23:02:40.325Z,12.14
2019-04-30T23:05:10.576Z,12.19
2019-04-30T23:07:39.850Z,12.16
2019-04-30T23:10:08.826Z,12.07
2019-04-30T23:12:37.732Z,12.14
2019-04-30T23:15:07.201Z,12.02
2019-04-30T23:17:36.130Z,12.07
2019-04-30T23:20:05.461Z,12.03
2019-04-30T23:22:34.731Z,11.91
2019-04-30T23:25:03.345Z,11.85
2019-04-30T23:27:32.242Z,11.90
2019-04-30T23:30:03.410Z,11.78
2019-04-30T23:32:31.746Z,11.72
2019-04-30T23:35:00.620Z,11.68
2019-04-30T23:37:29.516Z,11.70
2019-04-30T23:40:18.989Z,11.64
2019-04-30T23:42:47.878Z,11.59
2019-04-30T23:45:16.764Z,11.64
2019-04-30T23:47:45.967Z,11.67
2019-04-30T23:50:14.961Z,11.67
2019-04-30T23:52:43.857Z,11.64
2019-04-30T23:55:12.649Z,11.63
2019-04-30T23:57:41.527Z,11.64
